createdAt,value
2018-11-20T00:00:56.420Z,17.70
2018-11-20T00:04:38.730Z,17.87
2018-11-20T00:08:21.019Z,17.57
2018-11-20T00:11:55.601Z,22.00
2018-11-20T00:15:30.274Z,20.53
2018-11-20T00:19:05.376Z,14.80
2018-11-20T00:22:40.100Z,19.50
2018-11-20T00:26:03.504Z,14.03
2018-11-20T00:29:45.715Z,17.40
2018-11-20T00:33:21.614Z,18.73
2018-11-20T00:36:55.265Z,19.07
2018-11-20T00:40:24.681Z,18.03
2018-11-20T00:44:07.060Z,17.30
2018-11-20T00:47:49.331Z,13.28
2018-11-20T00:51:31.280Z,20.20
2018-11-20T00:54:53.286Z,17.30
2018-11-20T00:58:35.513Z,18.23
2018-11-20T01:02:00.256Z,16.43
2018-11-20T01:05:37.461Z,19.73
2018-11-20T01:09:11.875Z,21.12
2018-11-20T01:12:46.185Z,21.95
2018-11-20T01:16:20.696Z,18.37
2018-11-20T01:19:55.086Z,18.97
2018-11-20T01:23:29.394Z,23.70
2018-11-20T01:27:07.450Z,19.73
2018-11-20T01:30:42.584Z,19.20
2018-11-20T01:34:12.629Z,21.57
2018-11-20T01:37:27.685Z,19.30
2018-11-20T01:41:09.941Z,23.97
2018-11-20T01:44:52.171Z,19.50
2018-11-20T01:48:26.616Z,19.43
2018-11-20T01:51:48.520Z,21.30
2018-11-20T01:55:30.760Z,17.85
2018-11-20T01:58:53.318Z,19.62
2018-11-20T02:02:35.610Z,20.33
2018-11-20T02:05:59.024Z,20.87
2018-11-20T02:09:33.270Z,24.17
2018-11-20T02:12:56.586Z,19.57
2018-11-20T02:16:13.841Z,26.47
2018-11-20T02:19:56.156Z,22.60
2018-11-20T02:23:37.410Z,24.57
2018-11-20T02:27:12.002Z,24.30
2018-11-20T02:30:46.755Z,23.57
2018-11-20T02:34:24.770Z,24.18
2018-11-20T02:37:48.157Z,27.58
2018-11-20T02:41:23.349Z,28.63
2018-11-20T02:44:46.725Z,32.60
2018-11-20T02:48:29.244Z,24.67
2018-11-20T02:51:52.684Z,26.77
2018-11-20T02:55:35.055Z,25.77
2018-11-20T02:59:09.372Z,26.00
2018-11-20T03:06:01.893Z,37.83
2018-11-20T03:09:33.307Z,24.77
2018-11-20T03:13:17.594Z,23.00
2018-11-20T03:16:50.756Z,24.52
2018-11-20T03:20:25.802Z,23.60
2018-11-20T03:23:53.895Z,25.87
2018-11-20T03:27:28.162Z,23.93
2018-11-20T03:31:02.770Z,23.93
2018-11-20T03:34:26.460Z,24.13
2018-11-20T03:37:49.977Z,23.80
2018-11-20T03:41:32.308Z,25.47
2018-11-20T03:45:14.705Z,27.57
2018-11-20T03:48:56.987Z,26.80
2018-11-20T03:52:39.285Z,25.00
2018-11-20T03:56:14.495Z,28.90
2018-11-20T03:59:51.765Z,29.27
2018-11-20T04:03:26.997Z,29.23
2018-11-20T04:07:01.556Z,23.27
2018-11-20T04:10:25.643Z,31.00
2018-11-20T04:14:07.892Z,33.00
2018-11-20T04:17:22.094Z,29.60
2018-11-20T04:21:04.362Z,32.90
2018-11-20T04:24:39.032Z,34.00
2018-11-20T04:28:13.757Z,29.43
2018-11-20T04:32:14.905Z,34.80
2018-11-20T04:35:49.160Z,35.30
2018-11-20T04:39:26.750Z,32.08
2018-11-20T04:42:50.234Z,37.80
2018-11-20T04:46:32.633Z,34.75
2018-11-20T04:50:14.960Z,28.47
2018-11-20T04:53:34.022Z,32.20
2018-11-20T04:57:09.231Z,30.23
2018-11-20T05:00:51.475Z,29.72
2018-11-20T05:04:14.878Z,30.97
2018-11-20T05:07:36.717Z,35.23
2018-11-20T05:11:18.976Z,29.33
2018-11-20T05:14:48.525Z,37.10
2018-11-20T05:18:30.882Z,28.47
2018-11-20T05:22:13.141Z,34.70
2018-11-20T05:25:39.490Z,33.35
2018-11-20T05:29:21.741Z,32.03
2018-11-20T05:32:45.193Z,32.73
2018-11-20T05:36:27.442Z,35.13
2018-11-20T05:39:50.770Z,36.70
2018-11-20T05:43:14.143Z,36.47
2018-11-20T05:46:55.795Z,34.53
2018-11-20T05:50:37.965Z,42.90
2018-11-20T05:54:14.092Z,28.53
2018-11-20T05:57:37.470Z,33.63
2018-11-20T06:01:19.676Z,31.60
2018-11-20T06:04:43.047Z,29.33
2018-11-20T06:08:06.387Z,29.53
2018-11-20T06:11:32.767Z,29.13
2018-11-20T06:15:15.139Z,33.50
2018-11-20T06:18:36.868Z,23.43
2018-11-20T06:22:01.112Z,31.97
2018-11-20T06:25:43.427Z,39.03
2018-11-20T06:29:09.616Z,38.00
2018-11-20T06:32:36.932Z,35.15
2018-11-20T06:36:06.343Z,34.30
2018-11-20T06:39:48.656Z,34.93
2018-11-20T06:43:30.923Z,36.00
2018-11-20T06:46:57.316Z,28.03
2018-11-20T06:50:29.547Z,36.60
2018-11-20T06:54:04.081Z,38.80
2018-11-20T06:57:41.521Z,28.87
2018-11-20T07:01:14.887Z,39.67
2018-11-20T07:04:50.106Z,38.60
2018-11-20T07:08:32.415Z,29.60
2018-11-20T07:11:56.293Z,31.12
2018-11-20T07:15:31.393Z,31.90
2018-11-20T07:19:05.546Z,31.10
2018-11-20T07:22:37.760Z,37.57
2018-11-20T07:26:19.967Z,30.82
2018-11-20T07:29:41.806Z,27.50
2018-11-20T07:32:59.083Z,25.97
2018-11-20T07:36:41.441Z,25.00
2018-11-20T07:40:13.293Z,34.50
2018-11-20T07:43:39.394Z,31.17
2018-11-20T07:47:13.296Z,32.30
2018-11-20T07:50:35.272Z,31.77
2018-11-20T07:53:59.173Z,30.70
2018-11-20T07:57:33.807Z,28.10
2018-11-20T08:01:08.556Z,27.30
2018-11-20T08:04:45.988Z,34.80
2018-11-20T08:08:20.970Z,30.35
2018-11-20T08:11:55.341Z,30.67
2018-11-20T08:15:30.398Z,28.47
2018-11-20T08:18:56.493Z,31.27
2018-11-20T08:22:38.761Z,37.80
2018-11-20T08:26:14.549Z,39.57
2018-11-20T08:29:56.627Z,35.93
2018-11-20T08:33:38.873Z,34.17
2018-11-20T08:37:05.826Z,34.07
2018-11-20T08:40:43.538Z,36.80
2018-11-20T08:44:15.796Z,37.03
2018-11-20T08:47:39.323Z,33.40
2018-11-20T08:51:02.608Z,35.77
2018-11-20T08:54:26.539Z,38.42
2018-11-20T09:01:03.600Z,35.90
2018-11-20T09:04:27.499Z,39.67
2018-11-20T09:07:49.327Z,41.93
2018-11-20T09:11:31.568Z,39.77
2018-11-20T09:15:13.797Z,36.13
2018-11-20T09:18:37.200Z,38.97
2018-11-20T09:22:00.582Z,41.30
2018-11-20T09:25:35.429Z,42.73
2018-11-20T09:29:09.666Z,34.55
2018-11-20T09:32:33.083Z,37.50
2018-11-20T09:35:56.702Z,38.63
2018-11-20T09:39:39.147Z,43.63
2018-11-20T09:43:04.676Z,34.67
2018-11-20T09:46:34.924Z,33.67
2018-11-20T09:50:09.226Z,42.57
2018-11-20T09:53:44.016Z,38.10
2018-11-20T09:57:19.168Z,36.57
2018-11-20T10:00:53.963Z,37.13
2018-11-20T10:04:31.341Z,34.40
2018-11-20T10:08:07.198Z,40.05
2018-11-20T10:11:41.912Z,38.83
2018-11-20T10:14:57.220Z,34.50
2018-11-20T10:18:31.708Z,32.00
2018-11-20T10:22:06.959Z,31.47
2018-11-20T10:25:30.381Z,34.33
2018-11-20T10:29:12.507Z,31.68
2018-11-20T10:32:47.513Z,33.33
2018-11-20T10:36:22.139Z,36.03
2018-11-20T10:39:56.898Z,38.27
2018-11-20T10:43:32.006Z,38.40
2018-11-20T10:47:07.051Z,41.70
2018-11-20T10:50:42.103Z,36.43
2018-11-20T10:54:22.645Z,36.07
2018-11-20T10:57:57.191Z,35.60
2018-11-20T11:01:31.561Z,34.50
2018-11-20T11:05:06.360Z,33.00
2018-11-20T11:08:29.723Z,36.30
2018-11-20T11:12:12.116Z,32.57
2018-11-20T11:15:33.646Z,39.20
2018-11-20T11:18:57.021Z,33.40
2018-11-20T11:22:39.290Z,34.40
2018-11-20T11:26:19.777Z,32.23
2018-11-20T11:29:54.880Z,32.37
2018-11-20T11:33:35.684Z,36.60
2018-11-20T11:37:03.089Z,33.10
2018-11-20T11:40:36.820Z,35.75
2018-11-20T11:44:00.149Z,34.77
2018-11-20T11:47:42.443Z,40.23
2018-11-20T11:51:18.475Z,36.33
2018-11-20T11:54:44.408Z,37.53
2018-11-20T11:58:19.163Z,35.60
2018-11-20T12:05:27.920Z,34.93
2018-11-20T12:09:09.530Z,35.40
2018-11-20T12:12:44.111Z,35.68
2018-11-20T12:16:21.599Z,35.13
2018-11-20T12:19:57.218Z,37.37
2018-11-20T12:23:31.841Z,40.90
2018-11-20T12:27:07.481Z,36.37
2018-11-20T12:30:32.657Z,34.75
2018-11-20T12:34:05.184Z,30.80
2018-11-20T12:37:42.607Z,32.10
2018-11-20T12:41:14.784Z,28.03
2018-11-20T12:44:49.568Z,32.63
2018-11-20T12:48:24.714Z,36.70
2018-11-20T12:52:01.947Z,35.08
2018-11-20T12:55:40.008Z,36.20
2018-11-20T12:59:15.075Z,37.40
2018-11-20T13:02:49.505Z,42.23
2018-11-20T13:06:20.203Z,36.03
2018-11-20T13:09:43.699Z,38.70
2018-11-20T13:13:25.953Z,36.23
2018-11-20T13:17:09.249Z,33.60
2018-11-20T13:20:42.656Z,31.57
2018-11-20T13:24:09.784Z,42.03
2018-11-20T13:27:50.899Z,34.47
2018-11-20T13:31:33.211Z,35.30
2018-11-20T13:34:57.726Z,52.03
2018-11-20T13:38:39.659Z,44.90
2018-11-20T13:41:51.955Z,31.33
2018-11-20T13:45:34.105Z,40.83
2018-11-20T13:48:57.416Z,30.37
2018-11-20T13:52:29.494Z,38.33
2018-11-20T13:56:10.566Z,34.37
2018-11-20T13:59:36.542Z,42.85
2018-11-20T14:02:59.943Z,43.07
2018-11-20T14:06:42.149Z,41.03
2018-11-20T14:10:17.073Z,36.00
2018-11-20T14:13:40.458Z,39.50
2018-11-20T14:17:22.686Z,45.33
2018-11-20T14:24:47.484Z,44.65
2018-11-20T14:28:29.877Z,42.13
2018-11-20T14:31:51.725Z,37.90
2018-11-20T14:35:33.960Z,41.27
2018-11-20T14:38:57.582Z,41.30
2018-11-20T14:42:39.845Z,45.50
2018-11-20T14:46:14.910Z,42.47
2018-11-20T14:49:49.255Z,40.63
2018-11-20T14:53:29.884Z,43.40
2018-11-20T14:56:53.402Z,45.53
2018-11-20T15:00:35.754Z,37.30
2018-11-20T15:04:14.224Z,42.37
2018-11-20T15:07:43.624Z,42.20
2018-11-20T15:11:07.009Z,41.13
2018-11-20T15:14:49.415Z,42.07
2018-11-20T15:18:31.746Z,41.50
2018-11-20T15:21:55.131Z,48.00
2018-11-20T15:25:37.384Z,41.50
2018-11-20T15:29:12.466Z,43.83
2018-11-20T15:32:54.739Z,45.67
2018-11-20T15:36:29.106Z,53.23
2018-11-20T15:40:03.727Z,45.60
2018-11-20T15:43:22.727Z,48.20
2018-11-20T15:49:22.146Z,57.83
2018-11-20T15:52:47.866Z,43.70
2018-11-20T15:56:22.389Z,40.07
2018-11-20T16:00:03.109Z,49.27
2018-11-20T16:03:25.663Z,47.90
2018-11-20T16:07:07.494Z,46.80
2018-11-20T16:13:59.706Z,41.23
2018-11-20T16:17:41.532Z,45.10
2018-11-20T16:21:19.667Z,38.97
2018-11-20T16:24:43.681Z,33.47
2018-11-20T16:28:18.374Z,51.53
2018-11-20T16:31:53.575Z,37.40
2018-11-20T16:35:27.932Z,38.98
2018-11-20T16:42:28.118Z,37.60
2018-11-20T16:45:50.726Z,37.80
2018-11-20T16:52:52.436Z,43.67
2018-11-20T16:56:20.695Z,43.10
2018-11-20T16:59:56.115Z,40.67
2018-11-20T17:03:29.533Z,41.07
2018-11-20T17:06:50.628Z,43.67
2018-11-20T17:10:32.473Z,47.37
2018-11-20T17:14:04.236Z,38.70
2018-11-20T17:17:36.041Z,48.78
2018-11-20T17:21:11.062Z,43.37
2018-11-20T17:24:33.602Z,47.60
2018-11-20T17:28:15.595Z,40.80
2018-11-20T17:31:39.190Z,42.10
2018-11-20T17:35:13.477Z,45.15
2018-11-20T17:38:48.064Z,44.18
2018-11-20T17:42:00.530Z,46.13
2018-11-20T17:45:42.439Z,38.17
2018-11-20T17:49:15.346Z,43.83
2018-11-20T17:52:50.247Z,39.03
2018-11-20T17:56:25.076Z,38.53
2018-11-20T17:59:49.925Z,44.97
2018-11-20T18:03:31.788Z,41.00
2018-11-20T18:06:58.677Z,46.57
2018-11-20T18:10:33.112Z,37.80
2018-11-20T18:14:10.832Z,46.40
2018-11-20T18:17:38.578Z,45.43
2018-11-20T18:21:03.938Z,44.63
2018-11-20T18:24:45.832Z,37.88
2018-11-20T18:28:27.682Z,40.73
2018-11-20T18:32:08.137Z,39.47
2018-11-20T18:35:30.740Z,40.10
2018-11-20T18:39:06.223Z,43.87
2018-11-20T18:42:40.005Z,40.50
2018-11-20T18:46:14.469Z,44.87
2018-11-20T18:49:48.726Z,38.70
2018-11-20T18:53:10.213Z,41.97
2018-11-20T18:56:52.202Z,42.85
2018-11-20T19:00:20.082Z,42.90
2018-11-20T19:03:42.721Z,48.25
2018-11-20T19:07:24.629Z,39.67
2018-11-20T19:10:59.096Z,46.73
2018-11-20T19:14:25.742Z,42.53
2018-11-20T19:21:07.194Z,43.07
2018-11-20T19:24:49.038Z,41.70
2018-11-20T19:28:25.489Z,39.27
2018-11-20T19:32:00.728Z,40.00
2018-11-20T19:35:38.231Z,40.27
2018-11-20T19:39:00.881Z,38.10
2018-11-20T19:42:44.072Z,42.43
2018-11-20T19:46:17.976Z,39.40
2018-11-20T19:49:40.792Z,37.53
2018-11-20T19:53:22.638Z,40.10
2018-11-20T19:56:57.552Z,43.20
2018-11-20T20:00:25.915Z,46.07
2018-11-20T20:03:38.287Z,45.57
2018-11-20T20:07:00.950Z,40.63
2018-11-20T20:10:24.468Z,43.83
2018-11-20T20:13:45.292Z,47.40
2018-11-20T20:17:27.123Z,44.03
2018-11-20T20:20:48.240Z,48.57
2018-11-20T20:24:18.999Z,42.87
2018-11-20T20:28:00.964Z,48.27
2018-11-20T20:31:42.904Z,46.90
2018-11-20T20:35:05.431Z,46.50
2018-11-20T20:38:28.073Z,42.87
2018-11-20T20:41:58.140Z,46.60
2018-11-20T20:45:21.024Z,50.90
2018-11-20T20:49:02.854Z,51.17
2018-11-20T20:52:40.575Z,53.50
2018-11-20T20:56:22.464Z,55.30
2018-11-20T21:00:04.348Z,50.23
2018-11-20T21:03:46.228Z,55.20
2018-11-20T21:07:24.252Z,51.67
2018-11-20T21:10:46.687Z,51.03
2018-11-20T21:14:04.003Z,46.87
2018-11-20T21:17:45.964Z,52.67
2018-11-20T21:21:27.825Z,53.60
2018-11-20T21:25:02.770Z,47.13
2018-11-20T21:28:42.695Z,51.13
2018-11-20T21:32:15.619Z,52.60
2018-11-20T21:35:50.033Z,49.83
2018-11-20T21:39:25.057Z,51.40
2018-11-20T21:43:02.639Z,54.07
2018-11-20T21:46:37.140Z,55.88
2018-11-20T21:53:20.447Z,55.80
2018-11-20T21:56:32.654Z,54.58
2018-11-20T21:59:58.885Z,55.83
2018-11-20T22:03:34.044Z,56.90
2018-11-20T22:07:08.438Z,52.37
2018-11-20T22:10:40.224Z,52.50
2018-11-20T22:14:14.555Z,58.63
2018-11-20T22:17:37.175Z,54.00
2018-11-20T22:21:19.060Z,54.87
2018-11-20T22:25:00.881Z,63.27
2018-11-20T22:28:35.823Z,48.87
2018-11-20T22:31:58.375Z,51.83
2018-11-20T22:35:40.251Z,57.80
2018-11-20T22:39:10.045Z,58.40
2018-11-20T22:42:31.315Z,47.13
2018-11-20T22:46:13.175Z,50.10
2018-11-20T22:49:47.703Z,57.10
2018-11-20T22:53:28.653Z,53.00
2018-11-20T22:56:55.093Z,61.20
2018-11-20T23:00:29.541Z,65.93
2018-11-20T23:03:52.164Z,59.00
2018-11-20T23:07:14.774Z,63.47
2018-11-20T23:10:32.746Z,69.90
2018-11-20T23:13:36.335Z,67.93
2018-11-20T23:16:59.170Z,65.13
2018-11-20T23:20:21.971Z,75.30
2018-11-20T23:23:25.544Z,74.33
2018-11-20T23:26:29.048Z,61.97
2018-11-20T23:29:51.887Z,81.83
2018-11-20T23:33:14.713Z,74.95
2018-11-20T23:36:30.583Z,70.10
2018-11-20T23:39:45.924Z,68.97
2018-11-20T23:43:01.580Z,64.25
2018-11-20T23:46:17.705Z,74.83
2018-11-20T23:49:33.151Z,73.12
2018-11-20T23:52:36.852Z,69.13
2018-11-20T23:55:40.353Z,74.27
2018-11-20T23:59:03.224Z,67.57
